Time;durP1;ratioP1;P1;durP2;ratioP2;P2;SDS_P1;SDS_P2;PMS_P1;PMS_P2;Temp;Humidity;BMP_temperature;BMP_pressure;BME280_temperature;BME280_humidity;BME280_pressure;Samples;Min_cycle;Max_cycle;Signal;HPM_P1;HPM_P2
2021/12/07 00:00:18;;;;;;;6.78;6.07;;;16.20;28.50;;;;;;5039227;28;20226;-70
2021/12/07 00:02:45;;;;;;;6.43;5.82;;;16.20;28.60;;;;;;5035104;28;20206;-70
2021/12/07 00:05:14;;;;;;;6.68;6.07;;;16.10;28.50;;;;;;5034738;28;20271;-70
2021/12/07 00:07:42;;;;;;;6.10;5.60;;;16.10;28.40;;;;;;5034858;28;20232;-70
2021/12/07 00:10:10;;;;;;;6.03;5.53;;;16.10;28.40;;;;;;5035291;28;20642;-69
2021/12/07 00:12:41;;;;;;;6.53;5.93;;;16.10;28.40;;;;;;5035044;28;20244;-70
2021/12/07 00:15:12;;;;;;;6.40;5.80;;;16.10;28.40;;;;;;5034978;28;20209;-69
2021/12/07 00:17:39;;;;;;;6.90;6.30;;;16.00;28.40;;;;;;5035338;28;20241;-69
2021/12/07 00:20:10;;;;;;;6.63;5.95;;;16.00;28.40;;;;;;5042843;28;20502;-70
2021/12/07 00:22:40;;;;;;;6.43;5.82;;;16.00;28.40;;;;;;5055408;28;20205;-70
2021/12/07 00:25:08;;;;;;;6.55;5.95;;;16.00;28.40;;;;;;5055074;28;20215;-70
2021/12/07 00:27:35;;;;;;;6.70;6.10;;;15.90;28.20;;;;;;5053690;28;20572;-69
2021/12/07 00:30:08;;;;;;;6.45;5.85;;;15.90;28.20;;;;;;5054841;28;20212;-69
2021/12/07 00:32:40;;;;;;;6.63;6.03;;;15.90;28.20;;;;;;5055040;28;20232;-68
2021/12/07 00:35:33;;;;;;;6.60;6.00;;;15.90;28.30;;;;;;5057031;28;20303;-69
2021/12/07 00:38:06;;;;;;;6.28;5.68;;;15.90;28.20;;;;;;5059563;28;20258;-69
2021/12/07 00:40:33;;;;;;;6.13;5.63;;;15.90;28.30;;;;;;5058525;28;20703;-70
2021/12/07 00:43:00;;;;;;;6.07;5.57;;;15.90;28.30;;;;;;5058788;28;20214;-70
2021/12/07 00:45:31;;;;;;;5.97;5.47;;;15.80;28.10;;;;;;5058558;28;20220;-70
2021/12/07 00:47:59;;;;;;;8.50;5.57;;;15.80;28.10;;;;;;5058822;28;20220;-70
2021/12/07 00:50:28;;;;;;;13.30;5.80;;;15.80;28.10;;;;;;5059210;28;20295;-69
2021/12/07 00:52:56;;;;;;;9.38;5.80;;;15.80;28.20;;;;;;5058724;28;20216;-68
2021/12/07 00:55:28;;;;;;;7.75;6.22;;;15.80;28.20;;;;;;5058519;28;20220;-69
2021/12/07 00:57:58;;;;;;;6.75;6.00;;;15.80;28.30;;;;;;5057781;28;20212;-69
2021/12/07 01:00:27;;;;;;;6.88;6.18;;;15.70;28.20;;;;;;5057701;28;20327;-69
2021/12/07 01:02:55;;;;;;;6.70;6.05;;;15.70;28.30;;;;;;5057485;28;20576;-69
2021/12/07 01:05:28;;;;;;;6.88;5.70;;;15.70;28.10;;;;;;5057810;28;20534;-69
2021/12/07 01:24:42;;;;;;;5.57;5.03;;;15.60;28.10;;;;;;5132081;28;20201;-68
2021/12/07 01:27:15;;;;;;;5.82;5.22;;;15.60;28.10;;;;;;5132845;27;20206;-68
2021/12/07 01:29:43;;;;;;;5.97;5.38;;;15.60;28.10;;;;;;5132640;27;20325;-68
2021/12/07 01:32:22;;;;;;;6.65;5.20;;;15.60;28.10;;;;;;5132387;27;20500;-68
2021/12/07 01:37:56;;;;;;;6.55;5.20;;;15.50;28.10;;;;;;5074506;27;20192;-68
2021/12/07 01:40:44;;;;;;;5.68;5.05;;;15.50;28.00;;;;;;5132388;27;20305;-68
2021/12/07 01:51:48;;;;;;;6.47;4.93;;;15.40;27.90;;;;;;5134194;27;20259;-68
2021/12/07 01:59:51;;;;;;;6.38;4.68;;;15.40;28.00;;;;;;5110884;28;20202;-68
2021/12/07 02:02:21;;;;;;;5.40;4.90;;;15.40;28.10;;;;;;5111634;28;20207;-68
2021/12/07 02:04:48;;;;;;;6.45;5.10;;;15.40;28.10;;;;;;5111625;28;20238;-68
2021/12/07 02:07:16;;;;;;;8.30;5.05;;;15.40;28.10;;;;;;5111775;28;20218;-68
2021/12/07 02:09:48;;;;;;;5.72;4.75;;;15.40;28.10;;;;;;5111405;28;20659;-68
2021/12/07 02:12:15;;;;;;;5.20;4.70;;;15.40;28.10;;;;;;5110880;28;20592;-68
2021/12/07 02:14:43;;;;;;;5.43;4.75;;;15.40;28.10;;;;;;5111887;28;20207;-68
2021/12/07 02:17:14;;;;;;;6.97;4.68;;;15.30;28.00;;;;;;5098113;28;20215;-68
2021/12/07 02:19:42;;;;;;;7.95;5.18;;;15.40;28.10;;;;;;5090078;28;20571;-68
2021/12/07 02:22:11;;;;;;;5.53;4.65;;;15.30;28.10;;;;;;5077714;28;20650;-68
2021/12/07 02:24:39;;;;;;;5.72;5.13;;;15.30;28.10;;;;;;5077334;28;20234;-68
2021/12/07 02:27:08;;;;;;;5.25;4.75;;;15.30;28.00;;;;;;5077206;28;20208;-68
2021/12/07 02:29:35;;;;;;;5.63;4.50;;;15.30;28.00;;;;;;5077306;28;20250;-68
2021/12/07 02:32:04;;;;;;;6.07;4.60;;;15.30;28.10;;;;;;5077005;28;20212;-68
2021/12/07 02:34:31;;;;;;;5.40;4.90;;;15.30;28.00;;;;;;5076632;28;20209;-68
2021/12/07 02:36:59;;;;;;;5.85;5.25;;;15.20;27.90;;;;;;5077055;28;20270;-68
2021/12/07 02:39:32;;;;;;;5.63;5.13;;;15.20;28.00;;;;;;5076453;28;20196;-68
2021/12/07 02:41:59;;;;;;;5.78;5.20;;;15.20;28.00;;;;;;5076204;28;20231;-68
2021/12/07 02:44:26;;;;;;;4.90;4.45;;;15.20;28.00;;;;;;5077027;28;20216;-68
2021/12/07 02:46:53;;;;;;;5.20;4.70;;;15.20;28.00;;;;;;5050140;28;20228;-68
2021/12/07 02:49:21;;;;;;;6.03;4.95;;;15.20;28.20;;;;;;5057035;28;20233;-68
2021/12/07 02:51:48;;;;;;;4.75;4.35;;;15.10;28.10;;;;;;5057171;28;20205;-68
2021/12/07 02:54:17;;;;;;;5.35;4.70;;;15.10;28.10;;;;;;5057016;28;20230;-68
2021/12/07 02:56:46;;;;;;;4.97;4.57;;;15.10;28.10;;;;;;5056278;28;20213;-68
2021/12/07 02:59:13;;;;;;;5.43;4.93;;;15.20;28.00;;;;;;5056051;28;20197;-68
2021/12/07 03:01:46;;;;;;;5.03;4.63;;;15.10;27.90;;;;;;5056881;28;20205;-68
2021/12/07 03:04:22;;;;;;;5.45;4.95;;;15.10;28.60;;;;;;5056749;28;20561;-68
2021/12/07 03:07:01;;;;;;;5.60;5.00;;;15.10;28.00;;;;;;5056927;28;20204;-68
2021/12/07 03:09:51;;;;;;;5.55;4.72;;;15.10;28.10;;;;;;5056577;28;20236;-68
2021/12/07 03:26:09;;;;;;;5.05;4.65;;;15.00;28.00;;;;;;5055804;28;20294;-68
2021/12/07 03:28:39;;;;;;;5.07;4.57;;;15.00;28.00;;;;;;5055465;28;20298;-68
2021/12/07 03:31:08;;;;;;;5.13;4.63;;;15.00;27.90;;;;;;5056394;28;20236;-68
2021/12/07 03:33:35;;;;;;;5.05;4.63;;;14.90;28.00;;;;;;5055100;28;20216;-68
2021/12/07 03:36:03;;;;;;;5.28;4.78;;;15.00;28.10;;;;;;5045329;28;20233;-68
2021/12/07 03:38:31;;;;;;;4.45;4.10;;;15.00;28.10;;;;;;5054450;28;20221;-68
2021/12/07 03:40:58;;;;;;;4.95;4.55;;;14.90;28.10;;;;;;5055757;28;20204;-68
2021/12/07 03:43:25;;;;;;;5.60;5.10;;;14.90;28.00;;;;;;5055229;28;20233;-68
2021/12/07 03:45:53;;;;;;;5.30;4.90;;;14.90;28.10;;;;;;5055575;28;20220;-68
2021/12/07 03:48:21;;;;;;;4.82;4.43;;;14.90;28.00;;;;;;5056007;28;20227;-68
2021/12/07 03:50:48;;;;;;;4.85;4.45;;;14.90;28.00;;;;;;5055318;28;20233;-68
2021/12/07 03:53:15;;;;;;;4.65;4.25;;;14.90;27.90;;;;;;5055089;28;20200;-68
2021/12/07 03:55:43;;;;;;;4.78;4.38;;;14.80;28.10;;;;;;5055385;28;20209;-68
2021/12/07 03:58:10;;;;;;;5.20;4.80;;;14.90;28.10;;;;;;5055074;28;20491;-68
2021/12/07 04:00:41;;;;;;;4.90;4.47;;;14.80;27.90;;;;;;5055891;28;20204;-68
2021/12/07 04:03:13;;;;;;;4.70;4.30;;;14.90;28.00;;;;;;5055142;28;20208;-68
2021/12/07 04:05:45;;;;;;;4.97;4.47;;;14.80;27.90;;;;;;5055141;28;20311;-68
2021/12/07 04:08:13;;;;;;;5.07;4.68;;;14.80;28.00;;;;;;5055620;28;20267;-68
2021/12/07 04:10:40;;;;;;;4.90;4.50;;;14.80;28.20;;;;;;5055025;28;20236;-68
2021/12/07 04:13:08;;;;;;;5.07;4.68;;;14.80;28.00;;;;;;5055233;28;20209;-68
2021/12/07 04:15:35;;;;;;;4.97;4.57;;;14.80;28.00;;;;;;5054271;28;20296;-68
2021/12/07 04:18:02;;;;;;;4.80;4.40;;;14.80;28.00;;;;;;5054969;28;20629;-68
2021/12/07 04:20:31;;;;;;;4.38;3.97;;;14.80;28.00;;;;;;5055568;28;20205;-68
2021/12/07 04:22:58;;;;;;;4.82;4.43;;;14.70;27.90;;;;;;5054825;28;20236;-68
2021/12/07 04:25:26;;;;;;;4.68;4.28;;;14.70;27.90;;;;;;5054746;28;20628;-68
2021/12/07 04:27:54;;;;;;;4.70;4.30;;;14.70;28.00;;;;;;5054637;28;20224;-68
2021/12/07 04:30:24;;;;;;;4.60;4.20;;;14.70;28.00;;;;;;5051481;28;20267;-68
2021/12/07 04:32:52;;;;;;;4.90;4.50;;;14.70;28.10;;;;;;5094531;28;20215;-68
2021/12/07 04:35:19;;;;;;;4.45;4.05;;;14.70;28.10;;;;;;5094940;28;20207;-68
2021/12/07 04:37:48;;;;;;;4.85;4.45;;;14.70;28.00;;;;;;5095802;28;20212;-68
2021/12/07 04:40:18;;;;;;;4.28;3.88;;;14.70;28.00;;;;;;5095819;28;20204;-68
2021/12/07 04:42:46;;;;;;;4.13;3.72;;;14.70;28.00;;;;;;5094598;28;20222;-69
2021/12/07 04:45:25;;;;;;;4.47;4.07;;;14.60;27.90;;;;;;5094682;28;20204;-69
2021/12/07 04:48:04;;;;;;;4.85;4.45;;;14.60;28.00;;;;;;5095487;28;20211;-68
2021/12/07 04:57:36;;;;;;;4.45;4.05;;;14.60;28.00;;;;;;5094268;28;20319;-69
2021/12/07 04:58:59;;;;;;;4.28;3.88;;;14.50;28.00;;;;;;5094773;28;20514;-69
2021/12/07 05:01:26;;;;;;;4.20;3.80;;;14.60;28.10;;;;;;5094591;28;20599;-69
2021/12/07 05:03:56;;;;;;;3.95;3.65;;;14.60;28.00;;;;;;5094570;28;20216;-69
2021/12/07 05:06:27;;;;;;;3.80;3.50;;;14.50;28.00;;;;;;5095268;28;20215;-68
2021/12/07 05:09:00;;;;;;;4.25;3.95;;;14.50;27.90;;;;;;5094592;28;20228;-68
2021/12/07 05:14:17;;;;;;;4.22;3.92;;;14.50;28.00;;;;;;5094329;28;20348;-68
2021/12/07 05:17:00;;;;;;;4.07;3.67;;;14.50;28.00;;;;;;5095053;28;20208;-69
2021/12/07 05:38:46;;;;;;;4.28;3.60;;;14.30;28.00;;;;;;5073520;28;20518;-68
2021/12/07 05:41:15;;;;;;;3.50;3.20;;;14.40;28.10;;;;;;5074010;28;20204;-69
2021/12/07 05:43:42;;;;;;;3.70;3.40;;;14.30;27.90;;;;;;5074013;28;20208;-68
2021/12/07 05:46:09;;;;;;;3.42;3.15;;;14.30;28.00;;;;;;5073827;28;20208;-68
2021/12/07 05:48:36;;;;;;;3.65;3.35;;;14.30;28.00;;;;;;5072801;28;20216;-68
2021/12/07 05:51:03;;;;;;;3.58;3.28;;;14.30;28.00;;;;;;5073681;28;20227;-68
2021/12/07 05:53:30;;;;;;;3.28;3.03;;;14.30;28.00;;;;;;5072735;28;20224;-68
2021/12/07 05:55:58;;;;;;;3.78;3.47;;;14.30;28.00;;;;;;5074308;28;20208;-68
2021/12/07 05:58:26;;;;;;;3.85;3.55;;;14.20;28.00;;;;;;5076388;28;20212;-68
2021/12/07 06:00:57;;;;;;;3.92;3.20;;;14.30;28.00;;;;;;5077000;28;20208;-68
2021/12/07 06:03:25;;;;;;;3.50;3.20;;;14.20;28.00;;;;;;5077855;28;20307;-69
2021/12/07 06:05:54;;;;;;;3.60;3.30;;;14.20;28.00;;;;;;5097393;28;20239;-69
2021/12/07 06:08:22;;;;;;;3.40;3.10;;;14.20;28.10;;;;;;5096666;28;20269;-69
2021/12/07 06:10:49;;;;;;;3.20;3.00;;;14.20;28.00;;;;;;5075786;28;20259;-68
2021/12/07 06:13:17;;;;;;;3.80;3.50;;;14.20;28.00;;;;;;5076176;28;20208;-68
2021/12/07 06:15:45;;;;;;;3.50;3.20;;;14.20;28.10;;;;;;5076261;28;20209;-69
2021/12/07 06:18:13;;;;;;;3.42;3.13;;;14.20;28.00;;;;;;5076011;28;20208;-69
2021/12/07 06:20:41;;;;;;;3.60;3.30;;;14.20;28.10;;;;;;5075768;28;20204;-69
2021/12/07 06:23:10;;;;;;;3.70;3.40;;;14.20;28.10;;;;;;5076499;28;20761;-68
2021/12/07 06:25:37;;;;;;;3.20;2.92;;;14.20;28.00;;;;;;5065837;28;20232;-68
2021/12/07 06:28:05;;;;;;;3.20;3.00;;;14.10;28.00;;;;;;5075085;28;20651;-69
2021/12/07 06:30:32;;;;;;;3.45;3.25;;;14.10;28.10;;;;;;5075315;28;20232;-68
2021/12/07 06:33:01;;;;;;;3.17;2.95;;;14.10;28.00;;;;;;5074913;28;20204;-69
2021/12/07 06:35:28;;;;;;;3.40;3.10;;;14.10;28.00;;;;;;5075850;28;20510;-68
2021/12/07 06:37:56;;;;;;;3.20;3.00;;;14.10;28.10;;;;;;5076162;28;20215;-69
2021/12/07 06:40:23;;;;;;;3.40;3.10;;;14.10;28.10;;;;;;5075366;28;20216;-68
2021/12/07 06:42:50;;;;;;;3.10;2.90;;;14.10;28.10;;;;;;5075294;28;20212;-68
2021/12/07 06:45:17;;;;;;;3.20;3.00;;;14.10;28.10;;;;;;5075529;28;20211;-68
2021/12/07 06:47:45;;;;;;;3.15;2.85;;;14.10;28.10;;;;;;5074898;28;20654;-69
2021/12/07 06:50:14;;;;;;;2.90;2.70;;;14.10;28.10;;;;;;5074797;28;20307;-69
2021/12/07 06:52:41;;;;;;;3.05;2.85;;;14.00;28.00;;;;;;5075207;28;20208;-69
2021/12/07 06:55:09;;;;;;;3.05;2.80;;;14.00;28.10;;;;;;5075574;28;20583;-68
2021/12/07 06:57:36;;;;;;;3.00;2.80;;;14.10;28.20;;;;;;5075399;28;20212;-68
2021/12/07 07:00:06;;;;;;;3.30;3.00;;;14.00;28.70;;;;;;5075790;28;20507;-68
2021/12/07 07:02:34;;;;;;;2.97;2.78;;;14.00;28.00;;;;;;5060195;28;20208;-69
2021/12/07 07:05:01;;;;;;;2.97;2.78;;;14.00;28.20;;;;;;5055383;28;20220;-68
2021/12/07 07:07:29;;;;;;;3.25;2.95;;;14.00;28.10;;;;;;5054983;28;20208;-67
2021/12/07 07:09:56;;;;;;;3.35;3.08;;;14.00;28.10;;;;;;5067768;28;20232;-68
2021/12/07 07:12:24;;;;;;;3.03;2.83;;;14.00;28.00;;;;;;5074833;28;20224;-68
2021/12/07 07:14:51;;;;;;;2.95;2.75;;;14.00;28.10;;;;;;5075828;28;20208;-68
2021/12/07 07:17:18;;;;;;;3.08;2.88;;;14.00;28.10;;;;;;5077696;28;20207;-68
2021/12/07 07:19:45;;;;;;;3.20;2.90;;;13.90;28.00;;;;;;5074937;28;20219;-68
2021/12/07 07:22:12;;;;;;;2.88;2.67;;;13.90;28.20;;;;;;5075453;28;20208;-68
2021/12/07 07:24:43;;;;;;;2.88;2.67;;;13.90;28.00;;;;;;5074527;28;20223;-68
2021/12/07 07:27:10;;;;;;;3.03;2.83;;;13.90;28.10;;;;;;5074959;28;20200;-69
2021/12/07 07:29:37;;;;;;;2.70;2.50;;;13.90;28.00;;;;;;5074272;28;20216;-69
2021/12/07 07:32:05;;;;;;;2.50;2.30;;;13.90;28.00;;;;;;5074695;28;20808;-67
2021/12/07 07:34:33;;;;;;;2.83;2.63;;;13.90;28.10;;;;;;5094529;28;20204;-69
2021/12/07 07:37:00;;;;;;;2.70;2.50;;;13.90;28.10;;;;;;5095026;28;20222;-68
2021/12/07 07:39:27;;;;;;;3.13;2.40;;;13.90;28.10;;;;;;5095523;28;20707;-68
2021/12/07 07:41:55;;;;;;;2.30;2.17;;;13.90;28.10;;;;;;5095341;28;20207;-69
2021/12/07 07:44:23;;;;;;;2.80;2.60;;;13.90;28.10;;;;;;5095271;28;20584;-69
2021/12/07 07:46:50;;;;;;;2.67;2.47;;;13.80;28.10;;;;;;5095382;28;20212;-69
2021/12/07 07:49:17;;;;;;;2.70;2.50;;;13.90;28.10;;;;;;5095001;28;20207;-68
2021/12/07 07:51:44;;;;;;;2.70;2.50;;;13.90;28.20;;;;;;5094712;28;20250;-68
2021/12/07 07:54:11;;;;;;;2.55;2.35;;;13.80;28.10;;;;;;5094486;28;20211;-68
2021/12/07 07:56:39;;;;;;;2.50;2.30;;;13.80;28.10;;;;;;5094760;28;20669;-69
2021/12/07 07:59:07;;;;;;;2.47;2.30;;;13.80;28.00;;;;;;5086641;28;20230;-69
2021/12/07 08:01:34;;;;;;;2.65;2.45;;;13.80;28.10;;;;;;5073986;28;20208;-68
2021/12/07 08:04:06;;;;;;;2.45;2.25;;;13.80;28.10;;;;;;5073904;28;20208;-68
2021/12/07 08:06:34;;;;;;;2.45;2.25;;;13.70;28.10;;;;;;5074622;28;20224;-68
2021/12/07 08:09:01;;;;;;;2.30;2.10;;;13.70;28.10;;;;;;5073711;28;20298;-69
2021/12/07 08:11:28;;;;;;;2.33;2.20;;;13.70;28.10;;;;;;5074029;28;20642;-69
2021/12/07 08:13:55;;;;;;;2.22;2.08;;;13.80;28.20;;;;;;5074586;28;20204;-69
2021/12/07 08:16:24;;;;;;;2.40;2.20;;;13.80;28.10;;;;;;5074027;28;20220;-69
2021/12/07 08:18:53;;;;;;;2.80;2.60;;;13.70;28.10;;;;;;5073973;28;20197;-68
2021/12/07 08:21:22;;;;;;;2.55;2.35;;;13.70;28.10;;;;;;5075463;28;20278;-68
2021/12/07 08:23:49;;;;;;;2.20;2.10;;;13.70;28.20;;;;;;5073024;28;20218;-68
2021/12/07 08:26:20;;;;;;;2.60;2.40;;;13.70;28.20;;;;;;5078166;28;20499;-68
2021/12/07 08:28:47;;;;;;;2.63;2.42;;;13.70;28.10;;;;;;5094129;28;20211;-67
2021/12/07 08:31:14;;;;;;;2.40;2.20;;;13.70;28.20;;;;;;5094222;28;20235;-69
2021/12/07 08:33:43;;;;;;;2.13;2.00;;;13.70;28.20;;;;;;5093501;28;20613;-68
2021/12/07 08:36:10;;;;;;;2.58;2.38;;;13.70;28.40;;;;;;5093934;28;20207;-68
2021/12/07 08:38:38;;;;;;;2.47;2.28;;;13.70;28.40;;;;;;5093816;28;20215;-68
2021/12/07 08:41:05;;;;;;;2.50;2.20;;;13.70;28.50;;;;;;5092863;28;20203;-67
2021/12/07 08:43:34;;;;;;;2.50;2.30;;;13.70;28.50;;;;;;5090318;28;20219;-69
2021/12/07 08:46:02;;;;;;;2.45;2.25;;;13.70;28.60;;;;;;5090476;28;20723;-69
2021/12/07 08:48:30;;;;;;;2.47;2.28;;;13.70;28.70;;;;;;5090883;28;20407;-68
2021/12/07 08:51:00;;;;;;;2.47;2.28;;;13.70;28.70;;;;;;5090417;28;20216;-68
2021/12/07 08:53:28;;;;;;;2.20;2.10;;;13.70;28.70;;;;;;5086655;28;20234;-68
2021/12/07 09:01:28;;;;;;;2.45;2.25;;;13.70;28.90;;;;;;5052093;28;20250;-69
2021/12/07 09:03:57;;;;;;;2.55;2.15;;;13.80;28.90;;;;;;5052577;28;20205;-69
2021/12/07 09:06:26;;;;;;;2.22;2.10;;;13.80;29.00;;;;;;5051931;28;20223;-69
2021/12/07 09:08:53;;;;;;;1.90;1.80;;;13.80;28.90;;;;;;5052138;28;20236;-68
2021/12/07 09:11:21;;;;;;;2.10;1.92;;;13.80;29.00;;;;;;5052704;28;20229;-69
2021/12/07 09:13:48;;;;;;;2.58;1.90;;;13.80;29.00;;;;;;5052533;28;20213;-68
2021/12/07 09:16:18;;;;;;;2.30;2.10;;;13.80;29.00;;;;;;5052220;28;20811;-69
2021/12/07 09:18:45;;;;;;;1.95;1.85;;;13.80;29.10;;;;;;5052393;28;20220;-69
2021/12/07 09:21:13;;;;;;;2.30;1.77;;;13.80;29.10;;;;;;5052363;28;20201;-68
2021/12/07 09:23:43;;;;;;;2.00;1.90;;;13.80;29.10;;;;;;5051774;28;20212;-68
2021/12/07 09:26:10;;;;;;;2.50;1.95;;;13.90;29.10;;;;;;5053366;28;20236;-68
2021/12/07 09:28:39;;;;;;;1.80;1.70;;;13.90;29.10;;;;;;5053225;28;20215;-68
2021/12/07 09:31:07;;;;;;;1.80;1.70;;;13.90;29.10;;;;;;5054849;28;20225;-69
2021/12/07 09:33:34;;;;;;;2.45;2.05;;;13.90;29.10;;;;;;5057159;28;20208;-69
2021/12/07 09:36:02;;;;;;;2.25;2.05;;;13.90;29.20;;;;;;5056766;28;20220;-69
2021/12/07 09:38:29;;;;;;;3.25;2.30;;;13.90;29.10;;;;;;5057309;28;20201;-68
2021/12/07 09:40:58;;;;;;;2.05;1.85;;;13.90;29.10;;;;;;5056889;28;20209;-69
2021/12/07 09:43:25;;;;;;;4.45;2.38;;;13.90;29.10;;;;;;5057311;28;20483;-68
2021/12/07 09:45:52;;;;;;;2.40;2.08;;;13.90;29.10;;;;;;5056553;28;20216;-69
2021/12/07 09:48:20;;;;;;;3.28;1.90;;;13.90;29.10;;;;;;5056192;28;20201;-69
2021/12/07 09:50:51;;;;;;;2.95;1.95;;;13.90;29.10;;;;;;5056955;28;20211;-69
2021/12/07 09:53:19;;;;;;;3.05;1.77;;;13.90;29.10;;;;;;5056968;28;20197;-69
2021/12/07 09:55:49;;;;;;;3.35;2.33;;;13.90;29.10;;;;;;5056240;28;20220;-68
2021/12/07 09:58:18;;;;;;;2.25;2.00;;;13.90;29.10;;;;;;5056508;28;20209;-69
2021/12/07 10:00:47;;;;;;;2.20;2.00;;;13.90;29.00;;;;;;5056178;28;20201;-69
2021/12/07 10:03:15;;;;;;;2.22;1.98;;;13.90;29.60;;;;;;5056389;28;20209;-69
2021/12/07 10:05:43;;;;;;;2.08;1.90;;;14.00;29.20;;;;;;5056047;28;20209;-69
2021/12/07 10:08:11;;;;;;;2.75;1.90;;;14.00;29.20;;;;;;5055769;28;20212;-69
2021/12/07 10:10:42;;;;;;;2.72;2.22;;;14.00;29.20;;;;;;5055259;28;20273;-68
2021/12/07 10:13:11;;;;;;;3.70;2.10;;;14.00;29.20;;;;;;5056036;28;20228;-69
2021/12/07 10:15:42;;;;;;;2.55;1.98;;;14.00;29.30;;;;;;5055170;28;20212;-69
2021/12/07 10:18:12;;;;;;;2.97;2.10;;;14.00;29.20;;;;;;5055228;28;20224;-68
2021/12/07 10:20:42;;;;;;;4.63;2.08;;;14.00;29.30;;;;;;5055335;28;20226;-68
2021/12/07 10:23:34;;;;;;;2.25;1.98;;;14.00;29.20;;;;;;5052786;28;20201;-68
2021/12/07 10:26:05;;;;;;;3.35;1.88;;;14.00;29.30;;;;;;5032288;28;20604;-68
2021/12/07 10:28:36;;;;;;;2.85;1.85;;;14.00;29.30;;;;;;5032179;28;20497;-69
2021/12/07 10:31:18;;;;;;;3.42;1.88;;;14.00;29.30;;;;;;5031206;28;20216;-69
2021/12/07 10:33:49;;;;;;;2.38;1.88;;;14.00;29.20;;;;;;5047876;28;20223;-68
2021/12/07 10:36:19;;;;;;;3.17;2.20;;;14.00;29.20;;;;;;5051726;28;20217;-69
2021/12/07 10:38:50;;;;;;;2.55;1.80;;;14.00;29.20;;;;;;5051277;28;20209;-68
2021/12/07 10:41:21;;;;;;;4.72;2.08;;;14.00;29.20;;;;;;5051762;28;20279;-68
2021/12/07 10:43:53;;;;;;;2.15;1.90;;;14.00;29.20;;;;;;5054396;28;20638;-68
2021/12/07 10:46:36;;;;;;;2.58;1.80;;;14.00;29.10;;;;;;5051513;28;20228;-69
2021/12/07 10:49:30;;;;;;;2.83;2.15;;;14.00;29.10;;;;;;5051761;28;20587;-69
2021/12/07 10:52:20;;;;;;;2.10;1.80;;;14.00;29.10;;;;;;5051406;28;20264;-68
2021/12/07 10:54:51;;;;;;;2.08;1.88;;;14.00;29.20;;;;;;5051148;28;20775;-69
2021/12/07 10:57:21;;;;;;;2.03;1.70;;;14.00;29.20;;;;;;5049255;28;20811;-68
2021/12/07 10:59:57;;;;;;;4.57;1.90;;;14.00;29.20;;;;;;5050514;28;20608;-69
2021/12/07 11:02:30;;;;;;;2.30;1.98;;;14.00;29.20;;;;;;5051327;28;20503;-69
2021/12/07 11:04:58;;;;;;;1.92;1.77;;;14.00;29.20;;;;;;5051378;28;20207;-69
2021/12/07 11:07:27;;;;;;;1.88;1.65;;;14.00;29.20;;;;;;5050865;28;20213;-69
2021/12/07 11:10:03;;;;;;;2.10;1.90;;;14.00;29.20;;;;;;5051372;28;20240;-68
2021/12/07 11:12:37;;;;;;;3.13;1.98;;;14.00;29.20;;;;;;5051015;28;20256;-69
2021/12/07 11:15:13;;;;;;;2.70;1.88;;;14.00;29.20;;;;;;5050681;28;20303;-69
2021/12/07 11:17:41;;;;;;;3.97;1.67;;;14.00;29.30;;;;;;5052511;28;20208;-67
2021/12/07 11:20:10;;;;;;;2.72;1.65;;;14.00;29.30;;;;;;5052066;28;20205;-67
2021/12/07 11:22:39;;;;;;;2.20;1.63;;;14.00;29.40;;;;;;5051458;28;20204;-68
2021/12/07 11:25:08;;;;;;;5.35;2.05;;;14.00;29.40;;;;;;5052288;28;20551;-68
2021/12/07 11:30:22;;;;;;;4.00;1.95;;;14.00;29.30;;;;;;5050905;28;20211;-68
2021/12/07 11:32:55;;;;;;;2.95;1.60;;;14.00;29.40;;;;;;5051137;28;20248;-68
2021/12/07 11:35:26;;;;;;;2.90;1.67;;;14.00;29.40;;;;;;5049848;28;20201;-68
2021/12/07 11:37:56;;;;;;;2.00;1.80;;;14.00;29.30;;;;;;5049791;28;20584;-68
2021/12/07 11:40:26;;;;;;;1.63;1.50;;;14.00;29.30;;;;;;5048439;28;20303;-68
2021/12/07 11:42:54;;;;;;;3.35;1.40;;;14.00;29.40;;;;;;5050351;28;20201;-67
2021/12/07 11:45:25;;;;;;;2.95;1.67;;;14.00;29.30;;;;;;5049627;28;20600;-67
2021/12/07 11:47:55;;;;;;;2.63;1.42;;;14.00;29.30;;;;;;5050065;28;20599;-68
2021/12/07 11:50:31;;;;;;;3.60;1.60;;;14.00;29.30;;;;;;5052743;28;20666;-68
2021/12/07 11:53:01;;;;;;;2.05;1.40;;;14.00;29.30;;;;;;5052566;28;20245;-67
2021/12/07 11:55:30;;;;;;;2.22;1.30;;;14.10;29.30;;;;;;5052156;28;20520;-68
2021/12/07 11:58:01;;;;;;;9.50;8.15;;;14.00;29.20;;;;;;5053047;28;20271;-67
2021/12/07 12:00:34;;;;;;;5.78;5.10;;;14.00;29.20;;;;;;5053238;28;20201;-67
2021/12/07 12:03:04;;;;;;;6.97;4.53;;;14.00;29.20;;;;;;5053263;28;20315;-68
2021/12/07 12:05:33;;;;;;;5.53;4.30;;;14.00;29.20;;;;;;5051958;28;20797;-67
2021/12/07 12:08:01;;;;;;;4.60;3.88;;;14.00;29.20;;;;;;5052274;28;20559;-68
2021/12/07 12:10:29;;;;;;;5.00;3.78;;;14.00;29.20;;;;;;5052914;28;20241;-68
2021/12/07 12:13:12;;;;;;;4.60;3.53;;;14.00;29.20;;;;;;5053353;28;20225;-68
2021/12/07 12:16:17;;;;;;;5.07;3.80;;;14.00;29.30;;;;;;5053495;28;20201;-67
2021/12/07 12:18:58;;;;;;;3.80;3.40;;;14.00;29.30;;;;;;4971682;28;20207;-68
2021/12/07 12:21:33;;;;;;;8.13;6.90;;;14.00;29.30;;;;;;5045652;28;20212;-67
2021/12/07 12:24:08;;;;;;;7.75;6.93;;;14.00;29.30;;;;;;5052606;28;20201;-68
2021/12/07 12:26:36;;;;;;;8.65;6.30;;;14.00;29.30;;;;;;5053130;28;20211;-68
2021/12/07 12:29:16;;;;;;;6.18;5.43;;;14.00;29.30;;;;;;5052825;28;20216;-68
2021/12/07 12:31:49;;;;;;;7.38;5.70;;;14.00;29.20;;;;;;5052078;28;20204;-68
2021/12/07 12:34:20;;;;;;;7.55;5.68;;;14.00;29.20;;;;;;5053151;28;20700;-68
2021/12/07 12:37:08;;;;;;;6.05;4.63;;;14.00;29.20;;;;;;5051998;28;20208;-68
2021/12/07 12:39:44;;;;;;;5.60;4.95;;;14.00;29.20;;;;;;5050626;28;20640;-68
2021/12/07 12:42:15;;;;;;;6.88;5.03;;;14.00;29.30;;;;;;5090998;28;20248;-68
2021/12/07 12:44:42;;;;;;;5.57;4.40;;;14.00;29.20;;;;;;5092514;28;20491;-68
2021/12/07 12:47:09;;;;;;;6.10;4.65;;;14.00;29.30;;;;;;5091779;28;20200;-68
2021/12/07 12:49:40;;;;;;;6.20;4.50;;;14.00;29.30;;;;;;5092149;28;20211;-68
2021/12/07 12:52:08;;;;;;;6.43;4.30;;;14.00;29.30;;;;;;5092663;28;20223;-68
2021/12/07 12:54:43;;;;;;;4.78;4.07;;;14.00;29.30;;;;;;5093149;28;20203;-68
2021/12/07 12:57:16;;;;;;;5.13;3.85;;;14.00;29.40;;;;;;5092598;28;20215;-68
2021/12/07 12:59:46;;;;;;;5.00;3.80;;;14.00;29.40;;;;;;5092635;28;20204;-68
2021/12/07 13:02:14;;;;;;;3.58;3.28;;;14.00;29.40;;;;;;5092125;28;20195;-68
2021/12/07 13:04:46;;;;;;;6.78;6.07;;;14.00;29.40;;;;;;5091307;28;20553;-68
2021/12/07 13:07:27;;;;;;;7.30;5.55;;;14.00;29.50;;;;;;5092635;28;20207;-68
2021/12/07 13:09:56;;;;;;;7.30;5.03;;;14.00;29.50;;;;;;5092363;28;20265;-68
2021/12/07 13:12:26;;;;;;;5.93;5.20;;;14.00;29.60;;;;;;5091244;28;20742;-68
2021/12/07 13:15:00;;;;;;;6.70;4.90;;;14.00;29.70;;;;;;5092343;28;20692;-68
2021/12/07 13:17:33;;;;;;;5.90;4.85;;;14.00;29.90;;;;;;5091732;28;20726;-68
2021/12/07 13:20:20;;;;;;;7.22;4.95;;;14.10;30.00;;;;;;5091152;28;20215;-68
2021/12/07 13:22:50;;;;;;;5.20;4.70;;;14.10;30.20;;;;;;5091594;28;20215;-67
2021/12/07 13:25:25;;;;;;;6.03;5.43;;;14.10;30.40;;;;;;5085606;28;20199;-68
2021/12/07 13:28:21;;;;;;;8.63;7.70;;;14.10;30.80;;;;;;5071125;28;20575;-68
2021/12/07 13:30:58;;;;;;;7.70;7.00;;;14.10;31.00;;;;;;5075801;28;20204;-68
2021/12/07 13:33:38;;;;;;;9.10;7.72;;;14.20;31.40;;;;;;5091855;28;20234;-67
2021/12/07 13:36:39;;;;;;;8.48;7.78;;;14.20;31.80;;;;;;5092449;28;20761;-68
2021/12/07 13:39:41;;;;;;;8.70;7.90;;;14.30;32.10;;;;;;5092228;28;20310;-68
2021/12/07 13:42:12;;;;;;;8.70;7.90;;;14.30;32.50;;;;;;5091902;28;20210;-67
2021/12/07 13:44:40;;;;;;;9.55;8.57;;;14.40;33.00;;;;;;5092342;28;20323;-68
2021/12/07 13:47:11;;;;;;;8.10;7.50;;;14.40;33.00;;;;;;5091166;28;20211;-68
2021/12/07 13:49:43;;;;;;;8.35;7.65;;;14.50;33.10;;;;;;5090960;28;20214;-68
2021/12/07 13:52:22;;;;;;;8.70;8.00;;;14.50;33.10;;;;;;5091146;28;20210;-68
2021/12/07 13:54:51;;;;;;;8.07;7.50;;;14.60;33.20;;;;;;5089977;28;20712;-68
2021/12/07 13:57:21;;;;;;;8.60;7.88;;;14.60;33.20;;;;;;5090489;28;20241;-68
2021/12/07 14:00:01;;;;;;;8.07;7.43;;;14.70;33.30;;;;;;5090151;28;20215;-68
2021/12/07 14:02:29;;;;;;;7.53;6.97;;;14.70;33.30;;;;;;5090054;28;20231;-68
2021/12/07 14:05:06;;;;;;;7.70;7.10;;;14.70;33.30;;;;;;5090713;28;20227;-68
2021/12/07 14:07:36;;;;;;;7.07;6.32;;;14.80;33.20;;;;;;5090529;28;20207;-68
2021/12/07 14:10:14;;;;;;;6.63;6.07;;;14.80;32.80;;;;;;5091077;28;20228;-68
2021/12/07 14:12:42;;;;;;;6.60;6.05;;;14.90;32.80;;;;;;5091566;28;20234;-67
2021/12/07 14:15:12;;;;;;;6.00;5.50;;;14.90;32.70;;;;;;5091122;28;20593;-68
2021/12/07 14:17:45;;;;;;;7.63;7.13;;;14.90;32.40;;;;;;5092475;28;20223;-68
2021/12/07 14:20:13;;;;;;;9.75;9.05;;;14.90;32.20;;;;;;5093515;28;20681;-68
2021/12/07 14:22:47;;;;;;;9.30;8.55;;;14.90;32.00;;;;;;5093033;28;20203;-68
2021/12/07 14:25:18;;;;;;;8.02;7.43;;;15.00;31.90;;;;;;5093468;28;20214;-68
2021/12/07 14:27:45;;;;;;;7.97;7.43;;;15.00;31.80;;;;;;5074839;28;20204;-68